createdAt,value
2019-04-23T00:00:13.967Z,9.37
2019-04-23T00:02:51.103Z,9.31
2019-04-23T00:05:29.055Z,9.34
2019-04-23T00:07:56.199Z,9.24
2019-04-23T00:12:47.857Z,9.12
2019-04-23T00:17:48.833Z,9.12
2019-04-23T00:20:23.558Z,9.22
2019-04-23T00:22:59.901Z,9.22
2019-04-23T00:25:43.610Z,9.20
2019-04-23T00:28:06.703Z,9.12
2019-04-23T00:30:51.607Z,9.08
2019-04-23T00:33:05.244Z,9.06
2019-04-23T00:35:34.150Z,8.99
2019-04-23T00:38:06.587Z,8.95
2019-04-23T00:40:34.864Z,8.98
2019-04-23T00:43:03.812Z,8.97
2019-04-23T00:45:39.911Z,8.96
2019-04-23T00:48:12.581Z,8.91
2019-04-23T00:53:07.478Z,8.93
2019-04-23T00:55:35.673Z,8.92
2019-04-23T00:58:19.840Z,8.87
2019-04-23T01:00:45.126Z,8.91
2019-04-23T01:08:12.801Z,9.00
2019-04-23T01:10:50.952Z,9.02
2019-04-23T01:13:14.868Z,9.03
2019-04-23T01:15:46.701Z,9.08
2019-04-23T01:18:19.096Z,9.09
2019-04-23T01:20:50.250Z,9.12
2019-04-23T01:23:03.292Z,9.13
2019-04-23T01:25:50.088Z,9.13
2019-04-23T01:28:38.281Z,9.06
2019-04-23T01:31:08.962Z,9.11
2019-04-23T01:33:38.970Z,9.19
2019-04-23T01:36:16.144Z,9.24
2019-04-23T01:38:41.834Z,9.22
2019-04-23T01:41:07.777Z,9.22
2019-04-23T01:43:38.113Z,9.21
2019-04-23T01:46:07.963Z,9.21
2019-04-23T01:48:42.369Z,9.16
2019-04-23T01:51:02.463Z,9.16
2019-04-23T01:53:54.930Z,9.17
2019-04-23T01:56:07.918Z,9.17
2019-04-23T02:01:07.271Z,9.10
2019-04-23T02:03:42.824Z,9.05
2019-04-23T02:08:41.967Z,8.80
2019-04-23T02:11:10.619Z,8.57
2019-04-23T02:13:47.100Z,8.39
2019-04-23T02:16:11.721Z,8.35
2019-04-23T02:18:45.511Z,8.27
2019-04-23T02:21:12.068Z,8.25
2019-04-23T02:23:44.321Z,8.11
2019-04-23T02:26:12.885Z,7.98
2019-04-23T02:31:40.817Z,7.91
2019-04-23T02:34:09.687Z,7.86
2019-04-23T02:36:32.310Z,7.89
2019-04-23T02:41:27.978Z,7.93
2019-04-23T02:44:04.894Z,8.03
2019-04-23T02:46:13.232Z,7.99
2019-04-23T02:48:57.748Z,7.85
2019-04-23T02:51:31.117Z,7.69
2019-04-23T02:54:12.710Z,7.45
2019-04-23T02:56:49.022Z,7.39
2019-04-23T02:59:05.727Z,7.14
2019-04-23T03:01:25.303Z,7.13
2019-04-23T03:04:09.671Z,7.07
2019-04-23T03:06:29.900Z,7.06
2019-04-23T03:08:57.330Z,7.00
2019-04-23T03:11:38.489Z,7.00
2019-04-23T03:14:04.266Z,6.99
2019-04-23T03:16:48.235Z,6.97
2019-04-23T03:19:18.119Z,6.93
2019-04-23T03:37:24.296Z,6.55
2019-04-23T03:39:50.047Z,6.49
2019-04-23T03:44:37.742Z,6.39
2019-04-23T03:47:05.964Z,6.34
2019-04-23T03:52:12.109Z,6.33
2019-04-23T03:54:37.672Z,6.26
2019-04-23T03:57:15.576Z,6.21
2019-04-23T03:59:52.193Z,6.21
2019-04-23T04:02:20.864Z,6.18
2019-04-23T04:04:33.394Z,6.13
2019-04-23T04:09:42.567Z,6.10
2019-04-23T04:12:14.297Z,6.11
2019-04-23T04:19:56.602Z,6.01
2019-04-23T04:22:21.769Z,6.07
2019-04-23T04:24:39.518Z,5.96
2019-04-23T04:32:03.537Z,6.03
2019-04-23T04:35:06.861Z,5.97
2019-04-23T04:37:35.560Z,5.92
2019-04-23T04:39:54.684Z,5.93
2019-04-23T04:42:33.250Z,6.00
2019-04-23T04:47:27.967Z,6.05
2019-04-23T04:54:31.192Z,6.10
2019-04-23T04:57:36.815Z,6.17
2019-04-23T05:00:01.734Z,6.14
2019-04-23T05:03:03.331Z,6.13
2019-04-23T05:07:37.696Z,6.03
2019-04-23T05:15:00.807Z,6.12
2019-04-23T05:17:45.911Z,6.15
2019-04-23T05:20:05.566Z,6.12
2019-04-23T05:22:45.020Z,6.13
2019-04-23T05:25:02.094Z,6.26
2019-04-23T05:27:37.538Z,6.26
2019-04-23T05:30:09.957Z,6.21
2019-04-23T05:32:32.876Z,6.26
2019-04-23T05:35:07.876Z,6.35
2019-04-23T05:37:42.987Z,6.40
2019-04-23T05:40:18.663Z,6.34
2019-04-23T05:42:41.484Z,6.46
2019-04-23T05:45:02.894Z,6.48
2019-04-23T05:47:33.365Z,6.51
2019-04-23T05:50:09.919Z,6.61
2019-04-23T05:55:15.337Z,6.48
2019-04-23T05:57:49.133Z,6.42
2019-04-23T06:00:19.443Z,6.42
2019-04-23T06:02:57.232Z,6.29
2019-04-23T06:05:20.342Z,6.35
2019-04-23T06:07:49.668Z,6.45
2019-04-23T06:10:23.353Z,6.37
2019-04-23T06:12:50.688Z,6.36
2019-04-23T06:15:26.760Z,6.41
2019-04-23T06:17:56.155Z,6.47
2019-04-23T06:20:27.581Z,6.46
2019-04-23T06:22:56.042Z,6.41
2019-04-23T06:28:05.094Z,6.59
2019-04-23T06:30:41.927Z,6.55
2019-04-23T06:33:08.929Z,6.51
2019-04-23T06:35:36.206Z,6.44
2019-04-23T06:38:26.128Z,6.53
2019-04-23T06:40:34.305Z,6.58
2019-04-23T06:43:22.747Z,6.66
2019-04-23T06:46:01.529Z,6.56
2019-04-23T06:50:51.084Z,6.59
2019-04-23T06:53:12.492Z,6.58
2019-04-23T06:55:50.700Z,6.57
2019-04-23T06:58:27.682Z,6.49
2019-04-23T07:00:48.003Z,6.49
2019-04-23T07:03:22.158Z,6.51
2019-04-23T07:06:16.824Z,6.40
2019-04-23T07:16:12.822Z,6.49
2019-04-23T07:18:44.125Z,6.51
2019-04-23T07:26:30.340Z,6.80
2019-04-23T07:33:59.257Z,7.03
2019-04-23T07:36:30.852Z,6.86
2019-04-23T07:41:56.837Z,6.76
2019-04-23T07:44:29.740Z,6.85
2019-04-23T07:52:11.057Z,7.26
2019-04-23T07:54:39.992Z,7.06
2019-04-23T07:57:12.263Z,7.64
2019-04-23T08:02:06.089Z,7.86
2019-04-23T08:04:42.618Z,7.97
2019-04-23T08:07:07.040Z,8.07
2019-04-23T08:09:43.297Z,7.72
2019-04-23T08:12:13.330Z,7.62
2019-04-23T08:14:46.931Z,7.81
2019-04-23T08:17:12.457Z,7.94
2019-04-23T08:19:49.122Z,7.92
2019-04-23T08:22:22.165Z,8.01
2019-04-23T08:24:57.411Z,8.25
2019-04-23T08:27:34.757Z,8.47
2019-04-23T08:29:47.731Z,8.69
2019-04-23T08:35:11.002Z,9.09
2019-04-23T08:39:57.119Z,9.20
2019-04-23T08:47:37.273Z,8.91
2019-04-23T08:50:04.320Z,8.72
2019-04-23T08:52:33.476Z,8.80
2019-04-23T08:55:22.839Z,8.52
2019-04-23T08:57:35.097Z,9.44
2019-04-23T09:00:05.200Z,9.53
2019-04-23T09:05:10.729Z,9.33
2019-04-23T09:07:40.373Z,9.73
2019-04-23T09:10:11.248Z,10.20
2019-04-23T09:12:45.710Z,10.79
2019-04-23T09:15:23.067Z,11.36
2019-04-23T09:17:57.848Z,11.41
2019-04-23T09:22:51.835Z,11.01
2019-04-23T09:25:32.093Z,11.32
2019-04-23T09:27:53.185Z,10.73
2019-04-23T09:33:00.814Z,10.42
2019-04-23T09:35:35.938Z,10.70
2019-04-23T09:38:23.791Z,11.49
2019-04-23T09:41:04.144Z,12.60
2019-04-23T09:43:27.759Z,12.59
2019-04-23T09:46:15.105Z,12.35
2019-04-23T09:48:47.122Z,11.45
2019-04-23T09:51:10.331Z,10.92
2019-04-23T09:53:57.718Z,10.70
2019-04-23T09:56:05.008Z,10.29
2019-04-23T09:58:34.670Z,10.04
2019-04-23T10:01:29.482Z,10.00
2019-04-23T10:03:52.408Z,9.89
2019-04-23T10:06:18.256Z,9.48
2019-04-23T10:08:47.596Z,9.52
2019-04-23T10:11:11.874Z,9.76
2019-04-23T10:13:42.808Z,9.89
2019-04-23T10:16:15.615Z,10.15
2019-04-23T10:18:42.181Z,10.12
2019-04-23T10:21:11.311Z,11.06
2019-04-23T10:23:41.259Z,11.49
2019-04-23T10:26:10.178Z,11.70
2019-04-23T10:28:42.068Z,12.34
2019-04-23T10:31:12.511Z,12.77
2019-04-23T10:33:42.162Z,13.03
2019-04-23T10:36:15.800Z,13.64
2019-04-23T10:38:54.012Z,14.89
2019-04-23T10:41:14.081Z,15.64
2019-04-23T10:43:48.249Z,15.54
2019-04-23T10:46:43.620Z,15.86
2019-04-23T10:57:03.836Z,13.64
2019-04-23T11:04:53.958Z,13.51
2019-04-23T11:07:30.777Z,12.87
2019-04-23T11:12:37.225Z,12.49
2019-04-23T11:15:13.504Z,11.90
2019-04-23T11:17:41.346Z,12.63
2019-04-23T11:20:15.126Z,12.99
2019-04-23T11:25:12.794Z,13.04
2019-04-23T11:27:39.139Z,12.50
2019-04-23T11:30:19.593Z,13.02
2019-04-23T11:37:54.567Z,12.52
2019-04-23T11:42:47.601Z,11.93
2019-04-23T11:45:15.092Z,11.99
2019-04-23T11:48:14.324Z,11.75
2019-04-23T11:50:25.966Z,12.07
2019-04-23T11:55:26.833Z,11.60
2019-04-23T11:57:52.044Z,11.64
2019-04-23T12:00:13.853Z,11.92
2019-04-23T12:02:53.949Z,11.92
2019-04-23T12:06:09.611Z,11.80
2019-04-23T12:11:39.458Z,11.41
2019-04-23T12:14:03.139Z,10.92
2019-04-23T12:16:27.924Z,10.78
2019-04-23T12:19:25.474Z,10.83
2019-04-23T12:24:07.449Z,11.10
2019-04-23T12:29:09.892Z,10.87
2019-04-23T12:31:32.602Z,10.74
2019-04-23T12:34:06.264Z,10.55
2019-04-23T12:39:11.126Z,11.00
2019-04-23T12:41:44.869Z,11.16
2019-04-23T12:44:09.698Z,11.32
2019-04-23T12:46:45.773Z,10.93
2019-04-23T12:49:34.688Z,11.18
2019-04-23T12:51:50.299Z,11.50
2019-04-23T12:54:24.968Z,11.76
2019-04-23T12:57:01.275Z,11.61
2019-04-23T12:59:20.262Z,11.57
2019-04-23T13:01:49.686Z,11.41
2019-04-23T13:04:22.190Z,11.92
2019-04-23T13:06:45.825Z,12.36
2019-04-23T13:09:34.703Z,12.20
2019-04-23T13:11:52.992Z,12.17
2019-04-23T13:14:29.549Z,12.23
2019-04-23T13:17:05.497Z,12.38
2019-04-23T13:19:32.843Z,12.02
2019-04-23T13:22:08.154Z,12.00
2019-04-23T13:24:28.829Z,12.23
2019-04-23T13:26:56.530Z,12.07
2019-04-23T13:29:38.139Z,12.06
2019-04-23T13:31:58.313Z,11.76
2019-04-23T13:34:37.099Z,11.31
2019-04-23T13:37:07.366Z,11.77
2019-04-23T13:39:33.027Z,11.54
2019-04-23T13:42:06.084Z,11.77
2019-04-23T13:44:33.949Z,11.98
2019-04-23T13:47:10.584Z,12.34
2019-04-23T13:49:33.344Z,11.93
2019-04-23T13:52:39.489Z,11.54
2019-04-23T13:54:56.446Z,11.22
2019-04-23T13:57:32.564Z,11.04
2019-04-23T14:02:17.462Z,10.96
2019-04-23T14:04:48.401Z,10.98
2019-04-23T14:07:15.030Z,11.05
2019-04-23T14:09:54.861Z,11.22
2019-04-23T14:12:17.741Z,11.23
2019-04-23T14:17:36.214Z,11.28
2019-04-23T14:19:59.870Z,11.42
2019-04-23T14:22:54.747Z,11.58
2019-04-23T14:25:07.825Z,11.50
2019-04-23T14:27:36.777Z,11.41
2019-04-23T14:30:14.582Z,11.36
2019-04-23T14:32:29.347Z,11.34
2019-04-23T14:35:10.870Z,11.43
2019-04-23T14:37:33.072Z,11.29
2019-04-23T14:40:21.950Z,11.17
2019-04-23T14:43:00.018Z,11.22
2019-04-23T14:48:00.528Z,11.44
2019-04-23T14:53:06.321Z,11.18
2019-04-23T14:55:58.004Z,11.28
2019-04-23T14:58:18.085Z,11.37
2019-04-23T15:01:00.021Z,11.50
2019-04-23T15:03:25.406Z,11.82
2019-04-23T15:05:49.099Z,12.06
2019-04-23T15:08:20.710Z,12.14
2019-04-23T15:13:16.892Z,12.76
2019-04-23T15:15:55.631Z,12.63
2019-04-23T15:18:30.497Z,12.47
2019-04-23T15:21:23.871Z,12.89
2019-04-23T15:23:57.212Z,12.65
2019-04-23T15:26:47.792Z,12.80
2019-04-23T15:28:09.050Z,12.55
2019-04-23T15:31:04.082Z,12.07
2019-04-23T15:33:37.077Z,12.07
2019-04-23T15:36:12.786Z,11.99
2019-04-23T15:38:45.490Z,11.75
2019-04-23T15:41:10.632Z,11.66
2019-04-23T15:43:32.627Z,11.66
2019-04-23T15:46:14.673Z,11.77
2019-04-23T15:49:01.528Z,11.84
2019-04-23T15:51:12.357Z,11.83
2019-04-23T15:53:34.823Z,11.95
2019-04-23T15:56:18.257Z,11.75
2019-04-23T15:58:46.803Z,11.83
2019-04-23T16:01:27.098Z,11.78
2019-04-23T16:03:21.420Z,11.61
2019-04-23T16:05:50.940Z,11.42
2019-04-23T16:09:04.180Z,11.31
2019-04-23T16:11:33.502Z,11.31
2019-04-23T16:14:13.550Z,11.30
2019-04-23T16:16:28.631Z,11.16
2019-04-23T16:19:07.718Z,11.17
2019-04-23T16:21:47.261Z,11.12
2019-04-23T16:24:13.423Z,11.11
2019-04-23T16:31:56.485Z,11.19
2019-04-23T16:36:41.428Z,10.98
2019-04-23T16:39:10.235Z,10.89
2019-04-23T16:41:46.685Z,10.89
2019-04-23T16:46:49.732Z,10.74
2019-04-23T16:49:20.046Z,10.68
2019-04-23T16:51:43.093Z,10.71
2019-04-23T16:54:16.985Z,10.69
2019-04-23T16:57:01.013Z,10.69
2019-04-23T17:01:52.352Z,10.67
2019-04-23T17:04:24.779Z,10.64
2019-04-23T17:09:21.780Z,10.56
2019-04-23T17:14:19.152Z,10.52
2019-04-23T17:16:42.681Z,10.54
2019-04-23T17:19:22.697Z,10.51
2019-04-23T17:21:56.895Z,10.55
2019-04-23T17:24:23.976Z,10.56
2019-04-23T17:26:57.240Z,10.58
2019-04-23T17:29:28.587Z,10.54
2019-04-23T17:31:46.334Z,10.59
2019-04-23T17:34:30.479Z,10.61
2019-04-23T17:37:07.578Z,10.63
2019-04-23T17:40:01.837Z,10.62
2019-04-23T17:45:16.887Z,10.50
2019-04-23T17:47:35.254Z,10.51
2019-04-23T17:50:14.323Z,10.31
2019-04-23T17:52:47.370Z,10.34
2019-04-23T17:57:37.970Z,10.31
2019-04-23T18:00:16.062Z,10.37
2019-04-23T18:02:55.092Z,10.36
2019-04-23T18:12:48.948Z,10.56
2019-04-23T18:15:09.608Z,10.62
2019-04-23T18:17:43.331Z,10.64
2019-04-23T18:20:50.503Z,10.67
2019-04-23T18:25:45.769Z,10.57
2019-04-23T18:28:08.259Z,10.53
2019-04-23T18:30:59.585Z,10.47
2019-04-23T18:35:49.471Z,10.46
2019-04-23T18:38:25.090Z,10.35
2019-04-23T18:41:02.512Z,10.24
2019-04-23T18:43:30.773Z,10.22
2019-04-23T18:45:59.214Z,10.24
2019-04-23T18:51:05.178Z,10.17
2019-04-23T18:53:40.664Z,10.06
2019-04-23T18:58:44.845Z,10.06
2019-04-23T19:01:05.230Z,10.01
2019-04-23T19:03:55.561Z,10.04
2019-04-23T19:06:30.356Z,10.08
2019-04-23T19:12:01.654Z,10.04
2019-04-23T19:14:25.722Z,9.99
2019-04-23T19:17:25.005Z,9.98
2019-04-23T19:22:12.304Z,9.91
2019-04-23T19:24:21.935Z,9.87
2019-04-23T19:29:35.010Z,9.95
2019-04-23T19:32:08.049Z,9.97
2019-04-23T19:39:40.091Z,9.99
2019-04-23T19:44:42.746Z,9.92
2019-04-23T19:47:27.171Z,9.94
2019-04-23T19:49:38.556Z,9.97
2019-04-23T19:51:59.573Z,9.98
2019-04-23T19:54:55.408Z,9.97
2019-04-23T20:04:42.832Z,10.09
2019-04-23T20:07:30.923Z,10.10
2019-04-23T20:12:15.622Z,10.11
2019-04-23T20:19:44.751Z,10.23
2019-04-23T20:27:23.499Z,10.15
2019-04-23T20:30:32.459Z,10.09
2019-04-23T20:33:35.020Z,10.16
2019-04-23T20:38:10.869Z,10.09
2019-04-23T20:40:16.409Z,10.12
2019-04-23T20:42:44.527Z,10.12
2019-04-23T20:47:46.736Z,10.11
2019-04-23T20:49:58.501Z,10.07
2019-04-23T20:52:40.754Z,10.10
2019-04-23T20:57:45.433Z,10.05
2019-04-23T21:00:23.762Z,10.06
2019-04-23T21:05:21.284Z,10.15
2019-04-23T21:10:34.841Z,10.24
2019-04-23T21:13:05.330Z,10.34
2019-04-23T21:15:30.922Z,10.38
2019-04-23T21:18:08.300Z,10.38
2019-04-23T21:20:35.697Z,10.40
2019-04-23T21:23:04.686Z,10.44
2019-04-23T21:25:32.382Z,10.39
2019-04-23T21:31:03.422Z,10.36
2019-04-23T21:33:30.136Z,10.28
2019-04-23T21:39:04.294Z,10.22
2019-04-23T21:41:39.405Z,10.17
2019-04-23T21:44:10.156Z,10.13
2019-04-23T21:46:36.845Z,10.10
2019-04-23T21:53:58.750Z,10.10
2019-04-23T21:56:35.380Z,10.04
2019-04-23T21:59:01.443Z,10.06
2019-04-23T22:01:37.051Z,10.08
2019-04-23T22:06:40.851Z,10.01
2019-04-23T22:14:09.917Z,9.87
2019-04-23T22:16:46.741Z,9.83
2019-04-23T22:21:47.451Z,9.69
2019-04-23T22:24:05.685Z,9.59
2019-04-23T22:29:17.710Z,9.50
2019-04-23T22:31:41.769Z,9.41
2019-04-23T22:34:16.770Z,9.35
2019-04-23T22:36:45.819Z,9.32
2019-04-23T22:39:09.699Z,9.28
2019-04-23T22:41:42.198Z,9.25
2019-04-23T22:44:14.397Z,9.26
2019-04-23T22:49:24.837Z,9.19
2019-04-23T22:54:13.991Z,9.18
2019-04-23T22:56:54.778Z,9.21
2019-04-23T22:59:26.611Z,9.10
2019-04-23T23:01:57.020Z,9.10
2019-04-23T23:04:24.317Z,9.06
2019-04-23T23:11:53.971Z,9.12
2019-04-23T23:14:20.191Z,9.08
2019-04-23T23:16:50.400Z,9.09
2019-04-23T23:24:20.562Z,9.16
2019-04-23T23:26:57.231Z,9.10
2019-04-23T23:29:19.807Z,9.12
2019-04-23T23:32:02.049Z,9.10
2019-04-23T23:34:25.571Z,9.10
2019-04-23T23:37:00.267Z,9.17
2019-04-23T23:41:56.712Z,9.24
2019-04-23T23:47:04.421Z,9.25
2019-04-23T23:51:59.944Z,9.28
2019-04-23T23:54:49.578Z,9.17
2019-04-23T23:57:04.052Z,9.19
